»·PEaware :: WAT203 KSMF-KBOI

WAT203 :: KSMF-KBOI

FLIGHT INFORMATION

Flight Status: Arrived
Operator: Unknown
More flights by this operator :: More flights under this callsign
Pilot: Zachary C. (8151)
Aircraft: EMBRAER EMB-145XR
(E45X)
More flights by this aircraft type
Origin: KSMF Sacramento Intl
United States
Destination: KBOI Boise Air Terminal/Gowen
United States
More flights between these airports :: More routes between these airports
Route: +SCTWN2 MACUS PRNCS SADYL3
File this flight plan on PilotEdge
Remarks:
Altitude:
(Current/Filed)
35,000ft
Speed:
(Current/Filed)
450kts
Departed: 16-Apr-20 11:55 AM
Arrived: 16-Apr-20 01:05 PM
Distance/Time
Traveled:
379nm/1:10
Distance/Time
To Go:
Arrived

Flight Plot

Page will automatically refresh every two minutes.


Map Options




Map Legend


Flown Route
Filed Route
Departure Airport
Arrival Airport
Navaid (VOR, NDB)
Fix

Horizontal Profiles

Position Reports

Time Latitude Longitude Heading Altitude Ground
Speed
16-Apr-20 11:18 38.681172 -121.597002 269 31ft 0kts
16-Apr-20 11:19 38.681172 -121.597002 269 31ft 0kts
16-Apr-20 11:20 38.681172 -121.597002 269 31ft 0kts
16-Apr-20 11:21 38.681172 -121.597002 269 31ft 0kts
16-Apr-20 11:23 38.681172 -121.597002 269 31ft 0kts
16-Apr-20 11:24 38.681172 -121.597002 269 31ft 0kts
16-Apr-20 11:25 38.681172 -121.597002 269 31ft 0kts
16-Apr-20 11:26 38.681172 -121.597002 269 31ft 0kts
16-Apr-20 11:27 38.681172 -121.597002 269 31ft 0kts
16-Apr-20 11:28 38.681172 -121.597002 269 31ft 0kts
16-Apr-20 11:29 38.681172 -121.597002 269 31ft 0kts
16-Apr-20 11:30 38.681172 -121.597002 269 31ft 0kts
16-Apr-20 11:31 38.681172 -121.597002 269 31ft 0kts
16-Apr-20 11:32 38.681172 -121.597002 269 31ft 0kts
16-Apr-20 11:33 38.681172 -121.597002 269 31ft 0kts
16-Apr-20 11:34 38.681172 -121.597002 269 31ft 0kts
16-Apr-20 11:35 38.681172 -121.597002 269 31ft 0kts
16-Apr-20 11:36 38.681172 -121.597002 269 31ft 0kts
16-Apr-20 11:37 38.681172 -121.597002 269 31ft 0kts
16-Apr-20 11:38 38.681172 -121.597002 269 31ft 0kts
16-Apr-20 11:38 38.681172 -121.597002 269 31ft 0kts
16-Apr-20 11:40 38.681172 -121.597002 269 31ft 0kts
16-Apr-20 11:41 38.681172 -121.597002 269 31ft 0kts
16-Apr-20 11:41 38.681172 -121.597002 269 31ft 0kts
16-Apr-20 11:43 38.681172 -121.597002 269 31ft 0kts
16-Apr-20 11:44 38.681172 -121.597002 269 31ft 0kts
16-Apr-20 11:44 38.681172 -121.597002 269 31ft 0kts
16-Apr-20 11:45 38.681172 -121.597002 269 31ft 0kts
16-Apr-20 11:47 38.681172 -121.597002 269 31ft 0kts
16-Apr-20 11:47 38.681259 -121.597271 318 31ft 7kts
16-Apr-20 11:48 38.684043 -121.598863 1 31ft 15kts
16-Apr-20 11:49 38.688650 -121.598781 0 31ft 21kts
16-Apr-20 11:50 38.698142 -121.598627 0 31ft 37kts
16-Apr-20 11:51 38.707142 -121.598701 298 31ft 8kts
16-Apr-20 11:52 38.707197 -121.599705 267 31ft 0kts
16-Apr-20 11:53 38.707193 -121.599845 267 31ft 5kts
16-Apr-20 11:54 38.689292 -121.601598 186 287ft 188kts
16-Apr-20 11:55 38.657187 -121.555184 100 2608ft 214kts
16-Apr-20 11:56 38.639248 -121.481029 109 4777ft 228kts
16-Apr-20 11:57 38.632188 -121.401328 87 6980ft 237kts
16-Apr-20 11:58 38.634252 -121.317992 88 8975ft 244kts
16-Apr-20 11:59 38.636547 -121.227909 88 10744ft 243kts
16-Apr-20 12:00 38.638740 -121.138621 88 12973ft 255kts
16-Apr-20 12:01 38.641214 -121.034431 88 15309ft 330kts
16-Apr-20 12:02 38.643967 -120.916712 87 17512ft 326kts
16-Apr-20 12:03 38.646586 -120.796933 87 19751ft 348kts
16-Apr-20 12:04 38.668550 -120.677199 49 22029ft 353kts
16-Apr-20 12:05 38.732572 -120.579545 46 24245ft 359kts
16-Apr-20 12:06 38.799014 -120.479471 46 26488ft 380kts
16-Apr-20 12:07 38.869955 -120.372224 46 28746ft 404kts
16-Apr-20 12:08 38.944605 -120.259056 46 30969ft 422kts
16-Apr-20 12:09 39.021972 -120.141287 45 33181ft 434kts
16-Apr-20 12:10 39.100214 -120.021876 45 35100ft 448kts
16-Apr-20 12:11 39.183608 -119.893961 45 35134ft 467kts
16-Apr-20 12:12 39.266801 -119.765958 45 35134ft 459kts
16-Apr-20 12:13 39.348987 -119.638829 45 35130ft 456kts
16-Apr-20 12:14 39.430347 -119.512524 45 35129ft 457kts
16-Apr-20 12:15 39.511986 -119.385369 45 35137ft 459kts
16-Apr-20 12:16 39.593947 -119.257151 46 35134ft 460kts
16-Apr-20 12:17 39.675801 -119.128437 46 35147ft 461kts
16-Apr-20 12:18 39.757580 -118.999402 45 35154ft 461kts
16-Apr-20 12:19 39.839578 -118.869498 44 35160ft 464kts
16-Apr-20 12:20 39.939890 -118.779507 9 35168ft 435kts
16-Apr-20 12:21 40.056923 -118.735665 8 35166ft 438kts
16-Apr-20 12:22 40.174963 -118.691708 9 35169ft 442kts
16-Apr-20 12:23 40.293969 -118.647244 9 35170ft 445kts
16-Apr-20 12:24 40.413661 -118.602411 9 35169ft 447kts
16-Apr-20 12:25 40.533396 -118.557313 8 35171ft 449kts
16-Apr-20 12:26 40.653971 -118.511772 8 35171ft 450kts
16-Apr-20 12:27 40.774776 -118.465930 9 35174ft 451kts
16-Apr-20 12:28 40.896310 -118.419601 9 35179ft 452kts
16-Apr-20 12:29 41.017446 -118.373323 9 35189ft 451kts
16-Apr-20 12:30 41.130487 -118.329974 10 35182ft 431kts
16-Apr-20 12:31 41.242994 -118.286608 10 35179ft 410kts
16-Apr-20 12:32 41.351369 -118.244797 10 35192ft 409kts
16-Apr-20 12:33 41.461996 -118.201905 10 35182ft 414kts
16-Apr-20 12:34 41.573771 -118.158368 10 35181ft 417kts
16-Apr-20 12:35 41.685462 -118.114775 10 35198ft 416kts
16-Apr-20 12:36 41.796917 -118.071132 10 35225ft 413kts
16-Apr-20 12:37 41.907068 -118.027745 10 35222ft 411kts
16-Apr-20 12:38 42.017037 -117.984347 10 35222ft 409kts
16-Apr-20 12:39 42.124228 -117.941938 10 35234ft 408kts
16-Apr-20 12:40 42.234449 -117.898043 10 34102ft 412kts
16-Apr-20 12:41 42.344815 -117.854063 11 32030ft 418kts
16-Apr-20 12:42 42.453374 -117.794589 40 29839ft 437kts
16-Apr-20 12:43 42.528977 -117.673063 44 27616ft 399kts
16-Apr-20 12:44 42.597862 -117.558877 44 25390ft 382kts
16-Apr-20 12:45 42.664199 -117.448411 45 23220ft 370kts
16-Apr-20 12:46 42.728598 -117.340791 46 21254ft 354kts
16-Apr-20 12:47 42.791575 -117.235035 47 21014ft 372kts
16-Apr-20 12:48 42.856006 -117.125683 47 19014ft 357kts
16-Apr-20 12:49 42.917791 -117.020510 48 16972ft 348kts
16-Apr-20 12:50 42.977527 -116.918388 50 14909ft 340kts
16-Apr-20 12:51 43.035399 -116.819058 50 14013ft 322kts
16-Apr-20 12:52 43.090836 -116.725063 50 12771ft 304kts
16-Apr-20 12:53 43.141601 -116.638956 50 11052ft 285kts
16-Apr-20 12:54 43.195737 -116.565437 17 9373ft 269kts
16-Apr-20 12:55 43.264425 -116.536797 16 7848ft 247kts
16-Apr-20 12:56 43.327806 -116.511437 15 7010ft 221kts
16-Apr-20 12:57 43.386618 -116.482642 23 6568ft 233kts
16-Apr-20 12:58 43.449742 -116.443999 22 5382ft 250kts
16-Apr-20 12:59 43.511778 -116.419513 12 5017ft 216kts
16-Apr-20 13:00 43.567558 -116.391727 30 5019ft 211kts
16-Apr-20 13:01 43.614616 -116.346255 63 4724ft 203kts
16-Apr-20 13:02 43.585790 -116.290160 117 3796ft 182kts
16-Apr-20 13:03 43.568182 -116.237064 114 2881ft 135kts
16-Apr-20 13:04 43.561957 -116.218965 115 2877ft 15kts
16-Apr-20 13:05 43.560530 -116.216986 203 2877ft 0kts
16-Apr-20 13:06 43.559942 -116.217409 218 2877ft 14kts
16-Apr-20 13:07 43.559323 -116.219048 295 2877ft 0kts

Navigation Log

Ident Type
Flight plan parsing failed, navigation log unavailable